Time;durP1;ratioP1;P1;durP2;ratioP2;P2;SDS_P1;SDS_P2;PMS_P1;PMS_P2;Temp;Humidity;BMP_temperature;BMP_pressure;BME280_temperature;BME280_humidity;BME280_pressure;Samples;Min_cycle;Max_cycle;Signal;HPM_P1;HPM_P2
2023/07/07 00:00:15;;;;;;;1.80;0.70;;;;;;;20.25;100.00;99744.88;104276;1267;59390;-49
2023/07/07 00:02:43;;;;;;;1.20;0.90;;;;;;;20.20;100.00;99735.15;104224;1267;68161;-51
2023/07/07 00:05:09;;;;;;;1.00;0.80;;;;;;;20.16;100.00;99730.98;104022;1266;229806;-51
2023/07/07 00:07:39;;;;;;;1.80;1.00;;;;;;;20.10;100.00;99728.22;104352;1266;61947;-51
2023/07/07 00:10:07;;;;;;;3.20;1.20;;;;;;;20.07;100.00;99723.64;104352;1265;60816;-50
2023/07/07 00:12:35;;;;;;;0.90;0.80;;;;;;;20.03;100.00;99720.63;104554;1267;72273;-50
2023/07/07 00:15:01;;;;;;;2.50;0.90;;;;;;;20.01;100.00;99722.96;104304;1269;67277;-50
2023/07/07 00:17:28;;;;;;;1.80;0.70;;;;;;;20.01;100.00;99727.55;104119;1264;73082;-51
2023/07/07 00:19:55;;;;;;;0.70;0.70;;;;;;;19.99;100.00;99727.58;104429;1270;61676;-50
2023/07/07 00:22:21;;;;;;;2.00;0.70;;;;;;;19.96;100.00;99721.62;104270;1266;60299;-51
2023/07/07 00:24:49;;;;;;;1.70;0.70;;;;;;;19.91;100.00;99723.17;104235;1266;75300;-50
2023/07/07 00:27:15;;;;;;;0.70;0.70;;;;;;;19.85;100.00;99719.27;104147;1266;67881;-49
2023/07/07 00:29:42;;;;;;;1.00;0.70;;;;;;;19.83;100.00;99717.12;104225;1265;73273;-49
2023/07/07 00:32:09;;;;;;;2.00;0.70;;;;;;;19.81;100.00;99718.38;104466;1266;62012;-50
2023/07/07 00:34:35;;;;;;;0.90;0.80;;;;;;;19.81;100.00;99715.48;104714;1270;60310;-49
2023/07/07 00:37:02;;;;;;;0.80;0.80;;;;;;;19.80;100.00;99719.60;104138;1265;73508;-50
2023/07/07 00:39:29;;;;;;;0.90;0.70;;;;;;;19.77;100.00;99717.50;104284;1265;68376;-49
2023/07/07 00:41:56;;;;;;;0.60;0.60;;;;;;;19.75;100.00;99726.02;104243;1265;73305;-51
2023/07/07 00:44:26;;;;;;;1.10;0.80;;;;;;;19.74;100.00;99740.81;104202;1265;61792;-49
2023/07/07 00:46:53;;;;;;;1.50;0.70;;;;;;;19.76;100.00;99759.59;104616;1265;60670;-50
2023/07/07 00:49:19;;;;;;;2.80;0.80;;;;;;;19.80;100.00;99770.95;104166;1270;74122;-51
2023/07/07 00:51:53;;;;;;;0.70;0.70;;;;;;;19.84;100.00;99783.48;104388;1262;67528;-50
2023/07/07 00:54:26;;;;;;;2.10;0.80;;;;;;;19.88;100.00;99801.54;104978;1262;71989;-50
2023/07/07 00:56:53;;;;;;;1.20;0.70;;;;;;;19.93;100.00;99816.44;104442;1262;61850;-49
2023/07/07 00:59:22;;;;;;;1.30;0.70;;;;;;;19.95;100.00;99821.88;104402;1262;60038;-50
2023/07/07 01:01:51;;;;;;;2.10;0.90;;;;;;;19.96;100.00;99822.84;105058;1267;72717;-50
2023/07/07 01:04:18;;;;;;;2.20;0.90;;;;;;;19.97;100.00;99820.45;104465;1267;67996;-50
2023/07/07 01:06:48;;;;;;;0.80;0.70;;;;;;;19.96;100.00;99825.23;104774;1262;73144;-49
2023/07/07 01:09:15;;;;;;;4.10;0.70;;;;;;;19.96;100.00;99826.58;104439;1262;61939;-48
2023/07/07 01:11:42;;;;;;;2.00;0.70;;;;;;;19.96;100.00;99833.80;104689;1265;60407;-48
2023/07/07 01:14:13;;;;;;;1.30;0.80;;;;;;;19.99;100.00;99838.31;104486;1266;73838;-49
2023/07/07 01:16:48;;;;;;;1.50;1.00;;;;;;;20.00;100.00;99836.50;104917;1261;67511;-49
2023/07/07 01:19:27;;;;;;;1.40;0.70;;;;;;;20.03;100.00;99824.48;105404;1258;73312;-50
2023/07/07 01:21:54;;;;;;;1.60;0.80;;;;;;;20.04;100.00;99809.79;104654;1260;63373;-48
2023/07/07 01:24:37;;;;;;;2.00;0.80;;;;;;;19.98;100.00;99798.66;104701;1264;60050;-49
2023/07/07 01:27:23;;;;;;;1.70;0.80;;;;;;;19.81;100.00;99781.97;104479;1259;74355;-48
2023/07/07 01:30:23;;;;;;;1.00;0.80;;;;;;;19.66;100.00;99761.95;104555;1259;67987;-49
2023/07/07 01:32:51;;;;;;;1.00;0.80;;;;;;;19.57;100.00;99759.92;104437;1260;73208;-48
2023/07/07 01:35:19;;;;;;;1.10;0.80;;;;;;;19.53;100.00;99757.63;108644;1258;62180;-50
2023/07/07 01:37:54;;;;;;;0.70;0.70;;;;;;;19.48;100.00;99760.23;108753;1258;57925;-49
2023/07/07 01:40:33;;;;;;;1.20;0.60;;;;;;;19.46;100.00;99756.19;108780;1259;71778;-49
2023/07/07 01:43:04;;;;;;;1.50;0.70;;;;;;;19.45;100.00;99748.94;108715;1259;67736;-49
2023/07/07 01:45:37;;;;;;;0.70;0.70;;;;;;;19.44;100.00;99745.80;108667;1263;71505;-51
2023/07/07 01:48:23;;;;;;;0.70;0.70;;;;;;;19.47;100.00;99733.69;108556;1259;60679;-51
2023/07/07 01:50:50;;;;;;;0.90;0.70;;;;;;;19.54;100.00;99705.06;108620;1259;59289;-52
2023/07/07 01:53:20;;;;;;;0.60;0.60;;;;;;;19.61;100.00;99693.92;108696;1259;71201;-52
2023/07/07 01:55:52;;;;;;;5.20;0.80;;;;;;;19.67;100.00;99697.80;108706;1260;65767;-52
2023/07/07 01:58:20;;;;;;;1.00;0.70;;;;;;;19.72;100.00;99698.25;108702;1259;71090;-51
2023/07/07 02:00:49;;;;;;;2.50;0.90;;;;;;;19.77;100.00;99702.91;108768;1260;60474;-52
2023/07/07 02:03:16;;;;;;;0.70;0.70;;;;;;;19.82;100.00;99693.39;108706;1259;60399;-52
2023/07/07 02:05:46;;;;;;;3.70;0.80;;;;;;;19.85;100.00;99675.81;108696;1259;73500;-52
2023/07/07 02:08:13;;;;;;;1.80;0.80;;;;;;;19.88;100.00;99662.45;108717;1259;67079;-52
2023/07/07 02:10:40;;;;;;;2.80;0.80;;;;;;;19.93;100.00;99676.55;108738;1259;72611;-52
2023/07/07 02:13:06;;;;;;;0.80;0.80;;;;;;;19.97;100.00;99693.27;108651;1258;60763;-52
2023/07/07 02:15:36;;;;;;;4.80;0.70;;;;;;;20.01;100.00;99699.09;105664;1258;60320;-50
2023/07/07 02:18:03;;;;;;;1.80;0.80;;;;;;;20.05;100.00;99708.29;104531;1264;73657;-49
2023/07/07 02:20:32;;;;;;;1.00;0.80;;;;;;;20.08;100.00;99714.38;105332;1262;67919;-49
2023/07/07 02:22:59;;;;;;;1.50;0.90;;;;;;;20.10;100.00;99699.13;104681;1262;73301;-50
2023/07/07 02:25:25;;;;;;;1.20;1.10;;;;;;;20.12;100.00;99688.54;104569;1260;59850;-51
2023/07/07 02:27:52;;;;;;;2.80;1.50;;;;;;;20.14;100.00;99686.37;104763;1259;60099;-50
2023/07/07 02:30:19;;;;;;;1.70;1.30;;;;;;;20.16;100.00;99681.46;104609;1263;72631;-50
2023/07/07 02:32:46;;;;;;;3.40;2.00;;;;;;;20.17;100.00;99683.09;104614;1257;67548;-49
2023/07/07 02:35:13;;;;;;;1.80;1.70;;;;;;;20.20;100.00;99677.42;105944;1259;73255;-50
2023/07/07 02:37:39;;;;;;;2.00;1.90;;;;;;;20.23;100.00;99677.34;104652;1259;59800;-50
2023/07/07 02:40:09;;;;;;;3.40;3.10;;;;;;;20.25;100.00;99686.21;105724;1259;59782;-50
2023/07/07 02:42:36;;;;;;;3.10;3.00;;;;;;;20.26;100.00;99692.66;104935;1259;71816;-50
2023/07/07 02:45:03;;;;;;;3.10;3.00;;;;;;;20.28;100.00;99687.63;104580;1260;59648;-49
2023/07/07 02:47:30;;;;;;;3.40;3.20;;;;;;;20.30;100.00;99678.85;105423;1259;73028;-51
2023/07/07 02:49:57;;;;;;;4.70;3.70;;;;;;;20.34;100.00;99663.59;104737;1258;61949;-51
2023/07/07 02:52:24;;;;;;;4.40;3.90;;;;;;;20.36;100.00;99652.52;104660;1259;60815;-51
2023/07/07 02:54:50;;;;;;;5.70;5.10;;;;;;;20.37;100.00;99639.65;104705;1259;72465;-51
2023/07/07 02:57:17;;;;;;;7.30;6.70;;;;;;;20.39;100.00;99645.66;105535;1261;60200;-51
2023/07/07 02:59:44;;;;;;;7.20;6.70;;;;;;;20.42;100.00;99650.90;104939;1259;73075;-50
2023/07/07 03:02:10;;;;;;;6.50;6.00;;;;;;;20.43;100.00;99648.91;104744;1264;59767;-50
2023/07/07 03:04:37;;;;;;;8.30;7.50;;;;;;;20.46;100.00;99639.80;104644;1259;60188;-51
2023/07/07 03:07:04;;;;;;;7.40;6.90;;;;;;;20.48;100.00;99644.29;104655;1262;73452;-50
2023/07/07 03:09:31;;;;;;;6.90;6.30;;;;;;;20.50;100.00;99640.24;105023;1261;67597;-50
2023/07/07 03:12:00;;;;;;;6.30;6.00;;;;;;;20.53;100.00;99635.13;105007;1259;72971;-51
2023/07/07 03:14:26;;;;;;;6.50;5.90;;;;;;;20.55;100.00;99627.74;104889;1258;61870;-51
2023/07/07 03:16:56;;;;;;;6.80;6.30;;;;;;;20.57;100.00;99621.63;104809;1259;60161;-51
2023/07/07 03:19:27;;;;;;;6.70;6.20;;;;;;;20.58;100.00;99620.79;105336;1259;71743;-51
2023/07/07 03:22:04;;;;;;;6.70;6.20;;;;;;;20.59;100.00;99616.70;104822;1261;67298;-51
2023/07/07 03:24:51;;;;;;;7.00;6.40;;;;;;;20.60;100.00;99613.30;105042;1259;73836;-51
2023/07/07 03:27:33;;;;;;;7.50;7.00;;;;;;;20.62;100.00;99613.27;104658;1262;62606;-51
2023/07/07 03:30:00;;;;;;;6.50;6.20;;;;;;;20.66;100.00;99616.91;104623;1263;59703;-50
2023/07/07 03:32:27;;;;;;;8.00;7.40;;;;;;;20.70;100.00;99617.98;105170;1260;73638;-49
2023/07/07 03:34:58;;;;;;;7.30;6.60;;;;;;;20.73;100.00;99617.73;104644;1261;65716;-49
2023/07/07 03:37:26;;;;;;;8.10;7.60;;;;;;;20.74;100.00;99620.56;104682;1262;73032;-50
2023/07/07 03:39:53;;;;;;;8.30;7.60;;;;;;;20.75;100.00;99621.20;104611;1259;61858;-50
2023/07/07 03:42:20;;;;;;;7.00;6.30;;;;;;;20.75;100.00;99630.27;104461;1259;60354;-48
2023/07/07 03:44:47;;;;;;;8.40;7.90;;;;;;;20.76;100.00;99634.34;104890;1261;72519;-49
2023/07/07 03:47:13;;;;;;;9.80;9.00;;;;;;;20.78;100.00;99639.33;104633;1259;68816;-49
2023/07/07 03:49:41;;;;;;;9.50;8.60;;;;;;;20.79;100.00;99643.77;104939;1259;73432;-49
2023/07/07 03:52:08;;;;;;;9.10;8.50;;;;;;;20.82;100.00;99650.31;104473;1263;62539;-50
2023/07/07 03:54:35;;;;;;;9.90;9.20;;;;;;;20.85;100.00;99652.93;104516;1259;60649;-50
2023/07/07 03:57:02;;;;;;;10.10;9.40;;;;;;;20.90;100.00;99660.46;104243;1259;73300;-50
2023/07/07 03:59:28;;;;;;;9.60;8.70;;;;;;;20.95;100.00;99664.41;104338;1259;69433;-50
2023/07/07 04:01:55;;;;;;;10.90;10.00;;;;;;;20.99;100.00;99671.08;104210;1263;73192;-50
2023/07/07 04:04:22;;;;;;;10.90;10.00;;;;;;;21.03;100.00;99662.66;104696;1259;62064;-48
2023/07/07 04:06:49;;;;;;;11.60;10.80;;;;;;;21.07;100.00;99655.80;105251;1259;60482;-48
2023/07/07 04:09:16;;;;;;;11.60;10.70;;;;;;;21.09;100.00;99647.93;104592;1258;74676;-50
2023/07/07 04:11:42;;;;;;;11.30;10.50;;;;;;;21.11;100.00;99647.92;104467;1261;68444;-48
2023/07/07 04:14:09;;;;;;;12.10;11.20;;;;;;;21.13;100.00;99645.16;104442;1259;73123;-49
2023/07/07 04:16:35;;;;;;;10.20;9.60;;;;;;;21.14;100.00;99642.84;104489;1264;62071;-49
2023/07/07 04:19:03;;;;;;;13.40;12.40;;;;;;;21.16;100.00;99640.55;105721;1262;61010;-50
2023/07/07 04:21:30;;;;;;;13.10;12.00;;;;;;;21.15;100.00;99633.07;104775;1260;74340;-50
2023/07/07 04:23:59;;;;;;;14.00;12.70;;;;;;;21.14;100.00;99628.08;104838;1260;67572;-52
2023/07/07 04:26:27;;;;;;;13.50;12.40;;;;;;;21.11;100.00;99632.36;104663;1261;71984;-49
2023/07/07 04:28:57;;;;;;;12.20;11.30;;;;;;;21.09;100.00;99629.30;104909;1262;62037;-51
2023/07/07 04:31:25;;;;;;;11.90;11.00;;;;;;;21.11;100.00;99631.24;105452;1260;60487;-50
2023/07/07 04:33:52;;;;;;;11.90;11.10;;;;;;;21.14;100.00;99630.79;105665;1259;71393;-51
2023/07/07 04:36:19;;;;;;;11.50;10.60;;;;;;;21.17;100.00;99624.36;104989;1259;65061;-51
2023/07/07 04:38:46;;;;;;;12.30;11.40;;;;;;;21.18;100.00;99622.49;104667;1259;73023;-51
2023/07/07 04:41:18;;;;;;;10.50;10.00;;;;;;;21.17;100.00;99618.02;105209;1261;62399;-51
2023/07/07 04:43:56;;;;;;;13.10;12.20;;;;;;;21.16;100.00;99607.89;104812;1259;60458;-49
2023/07/07 04:46:36;;;;;;;14.90;13.50;;;;;;;21.14;100.00;99599.30;108752;1256;73714;-51
2023/07/07 04:49:07;;;;;;;13.70;12.60;;;;;;;21.11;100.00;99599.02;108838;1256;67525;-51
2023/07/07 04:51:36;;;;;;;11.90;11.10;;;;;;;21.08;100.00;99594.38;108744;1257;71415;-51
2023/07/07 04:54:03;;;;;;;13.00;12.00;;;;;;;21.06;100.00;99595.64;108774;1260;61966;-50
2023/07/07 04:56:29;;;;;;;10.90;10.10;;;;;;;21.03;100.00;99595.60;108735;1259;59436;-51
2023/07/07 04:58:56;;;;;;;10.70;9.90;;;;;;;21.00;100.00;99595.84;108665;1258;72262;-51
2023/07/07 05:01:24;;;;;;;10.80;10.00;;;;;;;20.99;100.00;99592.52;108720;1259;65627;-52
2023/07/07 05:03:55;;;;;;;11.60;10.80;;;;;;;21.00;100.00;99581.79;108772;1258;73174;-51
2023/07/07 05:06:22;;;;;;;11.70;10.90;;;;;;;21.04;100.00;99580.83;108776;1262;60740;-52
2023/07/07 05:08:49;;;;;;;11.20;10.40;;;;;;;21.08;100.00;99582.65;108778;1259;60000;-49
2023/07/07 05:11:18;;;;;;;11.00;10.40;;;;;;;21.13;100.00;99582.76;108795;1256;73995;-49
2023/07/07 05:13:46;;;;;;;12.80;11.60;;;;;;;21.18;100.00;99581.02;108808;1258;66654;-48
2023/07/07 05:16:16;;;;;;;12.10;11.20;;;;;;;21.20;100.00;99580.70;108723;1259;73121;-49
2023/07/07 05:18:43;;;;;;;12.40;11.50;;;;;;;21.21;100.00;99586.82;108736;1259;60728;-48
2023/07/07 05:21:11;;;;;;;11.80;10.90;;;;;;;21.23;100.00;99585.00;106352;1258;59117;-50
2023/07/07 05:23:37;;;;;;;11.90;11.10;;;;;;;21.28;100.00;99577.39;104645;1260;74391;-50
2023/07/07 05:26:04;;;;;;;11.50;10.80;;;;;;;21.34;100.00;99579.34;104332;1258;69433;-50
2023/07/07 05:28:31;;;;;;;12.50;11.60;;;;;;;21.40;100.00;99574.70;105141;1261;73194;-49
2023/07/07 05:30:57;;;;;;;12.30;11.40;;;;;;;21.48;100.00;99568.34;105000;1262;62493;-50
2023/07/07 05:33:26;;;;;;;10.30;9.70;;;;;;;21.56;100.00;99574.80;104553;1262;60470;-50
2023/07/07 05:35:55;;;;;;;11.50;10.60;;;;;;;21.63;100.00;99578.13;105286;1262;73851;-49
2023/07/07 05:38:23;;;;;;;11.30;10.70;;;;;;;21.67;100.00;99573.38;104952;1258;66645;-48
2023/07/07 05:40:50;;;;;;;11.50;10.70;;;;;;;21.70;100.00;99567.02;104741;1262;72693;-48
2023/07/07 05:43:18;;;;;;;10.10;9.50;;;;;;;21.71;100.00;99566.91;104577;1261;60426;-47
2023/07/07 05:45:45;;;;;;;12.20;10.70;;;;;;;21.74;100.00;99570.66;104763;1259;60501;-47
2023/07/07 05:48:12;;;;;;;12.30;11.30;;;;;;;21.80;100.00;99569.18;104563;1265;74395;-47
2023/07/07 05:50:39;;;;;;;12.90;11.90;;;;;;;21.82;100.00;99565.17;104704;1259;67934;-48
2023/07/07 05:53:05;;;;;;;12.50;11.50;;;;;;;21.82;100.00;99562.99;104929;1260;73442;-48
2023/07/07 05:55:34;;;;;;;13.10;12.00;;;;;;;21.86;100.00;99560.79;104571;1257;60931;-48
2023/07/07 05:58:01;;;;;;;11.30;10.60;;;;;;;21.90;100.00;99556.33;104684;1260;60563;-48
2023/07/07 06:00:29;;;;;;;13.30;12.20;;;;;;;21.97;100.00;99557.33;105486;1260;73914;-49
2023/07/07 06:02:56;;;;;;;13.00;12.20;;;;;;;21.98;100.00;99555.96;104816;1262;66441;-48
2023/07/07 06:05:26;;;;;;;11.00;10.40;;;;;;;21.92;100.00;99555.57;104511;1259;73197;-48
2023/07/07 06:07:53;;;;;;;11.70;11.00;;;;;;;21.88;100.00;99551.05;105292;1259;60619;-48
2023/07/07 06:10:22;;;;;;;11.30;10.60;;;;;;;21.87;100.00;99547.11;106251;1259;60482;-47
2023/07/07 06:12:48;;;;;;;11.00;10.00;;;;;;;21.91;100.00;99548.22;104774;1262;74206;-50
2023/07/07 06:15:15;;;;;;;11.30;10.50;;;;;;;21.93;100.00;99543.48;104782;1259;67989;-49
2023/07/07 06:17:44;;;;;;;10.40;9.80;;;;;;;21.95;100.00;99539.98;105043;1261;73251;-50
2023/07/07 06:20:12;;;;;;;13.30;12.40;;;;;;;21.99;100.00;99541.28;104886;1259;62613;-48
2023/07/07 06:22:40;;;;;;;28.50;25.60;;;;;;;22.03;100.00;99537.89;104631;1256;60856;-50
2023/07/07 06:25:07;;;;;;;44.50;37.70;;;;;;;22.11;100.00;99540.22;104863;1261;74211;-49
2023/07/07 06:27:33;;;;;;;28.70;25.90;;;;;;;22.20;100.00;99533.41;104872;1258;67839;-48
2023/07/07 06:30:00;;;;;;;25.90;23.40;;;;;;;22.27;100.00;99528.39;104807;1259;60611;-51
2023/07/07 06:32:26;;;;;;;15.00;13.90;;;;;;;22.31;100.00;99520.48;104808;1259;60432;-49
2023/07/07 06:34:53;;;;;;;10.90;10.30;;;;;;;22.36;100.00;99522.77;104734;1262;60852;-48
2023/07/07 06:37:21;;;;;;;13.60;12.80;;;;;;;22.41;100.00;99516.20;104696;1262;74384;-48
2023/07/07 06:39:47;;;;;;;12.90;12.20;;;;;;;22.46;100.00;99512.55;104664;1264;60460;-50
2023/07/07 06:42:14;;;;;;;12.00;11.40;;;;;;;22.54;100.00;99507.33;104636;1261;61074;-49
2023/07/07 06:44:46;;;;;;;14.30;13.10;;;;;;;22.65;100.00;99509.15;104488;1261;62168;-50
2023/07/07 06:47:13;;;;;;;13.10;12.20;;;;;;;22.77;100.00;99507.98;104632;1265;60550;-50
2023/07/07 06:49:41;;;;;;;14.00;13.10;;;;;;;22.88;100.00;99509.95;104841;1261;73740;-49
2023/07/07 06:52:08;;;;;;;12.50;11.90;;;;;;;22.93;100.00;99514.48;104693;1261;66961;-50
2023/07/07 06:54:35;;;;;;;13.00;12.10;;;;;;;22.97;100.00;99513.48;105063;1260;73217;-48
2023/07/07 06:57:01;;;;;;;14.60;13.60;;;;;;;23.03;100.00;99516.19;104489;1259;61654;-53
2023/07/07 06:59:29;;;;;;;13.00;12.30;;;;;;;23.08;100.00;99521.34;104673;1259;60600;-49
2023/07/07 07:01:56;;;;;;;13.30;12.40;;;;;;;23.14;100.00;99514.89;104616;1262;74382;-50
2023/07/07 07:04:22;;;;;;;12.50;11.80;;;;;;;23.19;100.00;99518.23;104511;1259;60536;-50
2023/07/07 07:06:49;;;;;;;13.60;12.80;;;;;;;23.22;100.00;99521.42;104627;1256;73185;-51
2023/07/07 07:09:16;;;;;;;12.30;11.60;;;;;;;23.23;100.00;99524.92;104775;1261;61685;-51
2023/07/07 07:11:43;;;;;;;10.90;10.00;;;;;;;23.22;100.00;99524.10;104658;1257;60445;-50
2023/07/07 07:14:13;;;;;;;9.70;9.20;;;;;;;23.20;100.00;99530.40;104712;1257;74266;-50
2023/07/07 07:16:40;;;;;;;6.70;6.40;;;;;;;23.20;100.00;99529.82;104665;1259;67122;-49
2023/07/07 07:19:07;;;;;;;5.70;5.50;;;;;;;23.23;100.00;99530.79;104833;1262;74188;-49
2023/07/07 07:21:34;;;;;;;5.00;4.60;;;;;;;23.25;100.00;99526.11;104730;1260;60609;-49
2023/07/07 07:24:01;;;;;;;4.70;4.50;;;;;;;23.26;100.00;99528.83;104723;1260;60438;-48
2023/07/07 07:26:28;;;;;;;3.50;3.30;;;;;;;23.24;100.00;99528.12;104687;1257;74328;-48
2023/07/07 07:28:54;;;;;;;3.50;3.20;;;;;;;23.24;100.00;99528.63;104711;1259;60942;-48
2023/07/07 07:31:21;;;;;;;3.70;3.50;;;;;;;23.27;100.00;99533.23;104459;1262;73332;-49
2023/07/07 07:33:50;;;;;;;2.30;2.10;;;;;;;23.31;100.00;99530.82;104625;1259;61546;-48
2023/07/07 07:36:17;;;;;;;2.80;2.60;;;;;;;23.36;100.00;99536.16;105580;1262;60409;-49
2023/07/07 07:38:44;;;;;;;1.90;1.80;;;;;;;23.44;100.00;99540.49;108723;1259;74501;-50
2023/07/07 07:41:10;;;;;;;2.60;2.40;;;;;;;23.50;100.00;99536.04;108747;1256;58349;-50
2023/07/07 07:43:37;;;;;;;1.70;1.60;;;;;;;23.56;100.00;99543.80;108745;1258;72979;-51
2023/07/07 07:46:03;;;;;;;2.30;2.10;;;;;;;23.62;100.00;99538.45;108824;1259;61741;-51
2023/07/07 07:48:30;;;;;;;2.40;1.80;;;;;;;23.63;100.00;99539.80;108833;1256;60197;-50
2023/07/07 07:50:58;;;;;;;1.60;1.50;;;;;;;23.67;100.00;99537.63;108838;1257;72750;-51
2023/07/07 07:53:25;;;;;;;2.30;1.30;;;;;;;23.74;100.00;99538.16;108832;1256;68736;-50
2023/07/07 07:55:52;;;;;;;1.70;1.60;;;;;;;23.80;100.00;99534.30;108806;1259;73236;-51
2023/07/07 07:58:19;;;;;;;4.00;1.60;;;;;;;23.85;100.00;99536.84;108824;1260;60489;-51
2023/07/07 08:00:45;;;;;;;2.70;1.60;;;;;;;23.92;100.00;99536.98;108878;1256;58319;-51
2023/07/07 08:03:12;;;;;;;1.40;1.20;;;;;;;23.98;100.00;99540.54;108865;1259;73850;-51
2023/07/07 08:05:39;;;;;;;1.70;1.40;;;;;;;24.04;100.00;99544.19;108902;1255;65605;-51
2023/07/07 08:08:07;;;;;;;1.60;1.50;;;;;;;24.11;100.00;99551.05;108836;1260;71351;-51
2023/07/07 08:10:34;;;;;;;1.10;1.00;;;;;;;24.20;100.00;99551.11;108846;1256;60487;-51
2023/07/07 08:13:00;;;;;;;1.30;1.20;;;;;;;24.29;100.00;99561.09;108891;1256;60305;-49
2023/07/07 08:15:28;;;;;;;1.10;1.00;;;;;;;24.42;100.00;99563.31;108824;1261;73637;-50
2023/07/07 08:17:54;;;;;;;3.00;2.70;;;;;;;24.54;100.00;99562.94;108887;1259;67973;-50
2023/07/07 08:20:23;;;;;;;2.90;1.00;;;;;;;24.67;100.00;99561.28;106622;1258;59282;-50
2023/07/07 08:22:50;;;;;;;3.00;1.20;;;;;;;24.76;100.00;99562.68;108813;1259;60024;-51
2023/07/07 08:25:16;;;;;;;4.20;1.30;;;;;;;24.79;100.00;99573.21;104995;1260;60404;-49
2023/07/07 08:27:43;;;;;;;1.40;1.30;;;;;;;24.80;100.00;99576.02;104930;1259;74619;-49
2023/07/07 08:30:30;;;;;;;1.70;1.60;;;;;;;24.87;100.00;99578.67;104768;1261;67184;-50
2023/07/07 08:32:57;;;;;;;1.50;1.40;;;;;;;24.94;100.00;99581.70;104821;1258;73600;-50
2023/07/07 08:35:24;;;;;;;2.80;1.50;;;;;;;24.93;100.00;99581.80;104846;1258;61832;-50
2023/07/07 08:37:51;;;;;;;2.20;2.00;;;;;;;24.92;100.00;99578.10;104635;1256;60658;-48
2023/07/07 08:40:20;;;;;;;5.20;1.40;;;;;;;24.93;100.00;99580.30;104896;1256;60556;-49
2023/07/07 08:42:46;;;;;;;1.30;1.20;;;;;;;24.96;100.00;99585.64;104776;1259;67978;-48
2023/07/07 08:45:22;;;;;;;2.90;1.20;;;;;;;24.96;100.00;99585.91;104554;1256;60451;-50
2023/07/07 08:48:13;;;;;;;2.70;1.10;;;;;;;24.93;100.00;99579.90;104538;1263;60736;-50
2023/07/07 08:50:49;;;;;;;1.90;1.10;;;;;;;24.96;100.00;99578.89;105203;1259;60622;-48
2023/07/07 08:53:32;;;;;;;1.30;1.20;;;;;;;24.98;100.00;99581.59;104792;1259;72359;-49
2023/07/07 08:56:00;;;;;;;1.50;1.40;;;;;;;24.95;100.00;99581.91;104855;1259;67734;-49
2023/07/07 08:58:44;;;;;;;2.00;1.40;;;;;;;24.89;100.00;99581.27;104691;1257;74250;-51
2023/07/07 09:01:26;;;;;;;2.10;1.50;;;;;;;24.84;100.00;99581.41;104713;1262;61931;-50
2023/07/07 09:04:17;;;;;;;3.30;1.50;;;;;;;24.87;100.00;99579.29;105433;1259;60437;-50
2023/07/07 09:07:23;;;;;;;1.50;1.40;;;;;;;24.94;100.00;99574.10;105238;1259;74028;-50
2023/07/07 09:10:10;;;;;;;1.40;1.10;;;;;;;25.08;100.00;99576.80;104730;1261;67352;-51
2023/07/07 09:12:46;;;;;;;1.60;1.20;;;;;;;25.18;100.00;99581.70;104578;1256;73223;-49
2023/07/07 09:15:26;;;;;;;1.40;1.30;;;;;;;25.24;100.00;99581.58;104854;1269;62136;-51
2023/07/07 09:17:55;;;;;;;1.20;1.10;;;;;;;25.24;100.00;99574.34;104852;1257;60462;-50
2023/07/07 09:20:22;;;;;;;2.10;1.60;;;;;;;25.26;100.00;99569.64;104723;1262;74321;-51
2023/07/07 09:22:58;;;;;;;2.20;1.10;;;;;;;25.28;100.00;99566.08;104891;1261;68464;-51
2023/07/07 09:25:35;;;;;;;2.60;1.50;;;;;;;25.34;100.00;99568.33;104929;1262;71693;-49
2023/07/07 09:28:11;;;;;;;1.00;1.00;;;;;;;25.44;100.00;99575.41;104738;1263;61993;-49
2023/07/07 09:30:45;;;;;;;2.50;1.20;;;;;;;25.51;100.00;99575.96;104776;1256;60472;-47
2023/07/07 09:33:16;;;;;;;2.40;1.40;;;;;;;25.53;100.00;99573.84;104774;1262;74480;-49
2023/07/07 09:36:16;;;;;;;1.70;1.60;;;;;;;25.55;100.00;99570.13;105202;1260;67822;-48
2023/07/07 09:38:58;;;;;;;1.20;1.10;;;;;;;25.62;100.00;99563.44;104736;1261;72944;-51
2023/07/07 09:41:37;;;;;;;2.90;1.40;;;;;;;25.71;100.00;99557.17;104835;1262;60483;-51
2023/07/07 09:44:25;;;;;;;1.40;1.30;;;;;;;25.85;100.00;99553.56;104783;1261;60367;-49
2023/07/07 09:47:00;;;;;;;1.20;1.10;;;;;;;26.00;100.00;99548.06;105208;1261;74378;-49
2023/07/07 09:49:45;;;;;;;3.50;1.70;;;;;;;26.07;100.00;99545.98;104962;1262;65692;-48
2023/07/07 09:52:46;;;;;;;1.90;1.40;;;;;;;26.09;100.00;99542.67;104764;1262;73390;-49
2023/07/07 09:55:42;;;;;;;6.00;1.70;;;;;;;26.02;100.00;99541.04;105013;1259;60562;-51
2023/07/07 09:58:20;;;;;;;1.50;1.40;;;;;;;25.96;100.00;99542.80;105003;1259;60371;-49
2023/07/07 10:00:49;;;;;;;1.10;1.00;;;;;;;25.94;100.00;99541.92;104681;1262;74457;-51
2023/07/07 10:03:44;;;;;;;1.60;1.00;;;;;;;26.00;100.00;99536.87;105290;1261;66938;-51
2023/07/07 10:06:34;;;;;;;4.30;1.20;;;;;;;26.09;100.00;99534.88;104785;1261;73262;-50
2023/07/07 10:09:01;;;;;;;1.40;1.30;;;;;;;26.12;100.00;99529.74;106489;1260;60567;-51
2023/07/07 10:11:38;;;;;;;1.30;1.20;;;;;;;26.12;100.00;99530.50;105056;1256;60544;-49
2023/07/07 10:14:27;;;;;;;2.20;1.50;;;;;;;26.04;100.00;99525.99;104782;1263;74393;-48
2023/07/07 10:17:09;;;;;;;1.80;1.70;;;;;;;25.97;100.00;99524.67;104749;1263;67766;-50
2023/07/07 10:19:43;;;;;;;1.40;1.30;;;;;;;25.86;100.00;99521.06;104568;1256;73007;-51
2023/07/07 10:22:10;;;;;;;1.50;1.30;;;;;;;25.77;100.00;99520.47;104538;1259;62305;-50
2023/07/07 10:24:37;;;;;;;2.00;1.40;;;;;;;25.73;100.00;99518.52;105128;1262;60476;-52
2023/07/07 10:27:04;;;;;;;1.50;1.40;;;;;;;25.72;100.00;99520.68;104869;1269;74366;-51
2023/07/07 10:29:37;;;;;;;1.40;1.30;;;;;;;25.76;100.00;99523.54;104769;1260;67580;-50
2023/07/07 10:32:04;;;;;;;3.30;1.50;;;;;;;25.83;100.00;99529.45;104889;1260;71433;-50
2023/07/07 10:34:36;;;;;;;1.80;1.70;;;;;;;25.92;100.00;99529.73;104857;1256;60380;-50
2023/07/07 10:37:08;;;;;;;1.90;1.70;;;;;;;25.99;100.00;99530.70;105003;1263;60465;-50
2023/07/07 10:39:35;;;;;;;1.50;1.40;;;;;;;26.05;100.00;99521.61;104834;1260;72787;-51
2023/07/07 10:42:02;;;;;;;1.60;1.20;;;;;;;26.11;100.00;99519.94;104872;1261;60454;-51
2023/07/07 10:44:28;;;;;;;2.40;2.20;;;;;;;26.18;100.00;99517.66;105053;1261;71201;-52
2023/07/07 10:46:55;;;;;;;2.10;1.60;;;;;;;26.22;100.00;99516.23;104573;1266;61775;-49
2023/07/07 10:49:24;;;;;;;1.70;1.60;;;;;;;26.25;100.00;99524.55;104792;1260;60438;-51
2023/07/07 10:51:58;;;;;;;3.10;2.00;;;;;;;26.26;100.00;99519.89;108878;1256;74251;-51
2023/07/07 10:54:47;;;;;;;1.70;1.60;;;;;;;26.26;100.00;99518.90;108748;1262;66865;-51
2023/07/07 10:57:33;;;;;;;2.40;1.60;;;;;;;26.25;100.00;99511.67;108872;1258;72577;-51
2023/07/07 11:00:06;;;;;;;3.40;1.60;;;;;;;26.27;100.00;99508.93;108719;1258;63323;-52
2023/07/07 11:03:02;;;;;;;1.60;1.50;;;;;;;26.31;100.00;99511.90;108764;1262;59109;-52
2023/07/07 11:05:36;;;;;;;1.30;1.20;;;;;;;26.37;100.00;99515.40;108876;1258;74812;-51
2023/07/07 11:08:39;;;;;;;1.60;1.50;;;;;;;26.46;100.00;99520.02;108761;1257;65836;-52
2023/07/07 11:11:24;;;;;;;2.80;1.50;;;;;;;26.50;100.00;99518.36;108704;1260;72939;-52
2023/07/07 11:13:57;;;;;;;2.60;1.40;;;;;;;26.51;100.00;99517.84;107313;1260;60250;-51
2023/07/07 11:16:39;;;;;;;2.50;1.20;;;;;;;26.57;100.00;99523.52;104826;1256;60477;-51
2023/07/07 11:19:24;;;;;;;1.40;1.30;;;;;;;26.57;100.00;99531.08;108614;1257;74770;-50
2023/07/07 11:22:04;;;;;;;1.20;1.10;;;;;;;26.54;100.00;99530.39;104758;1263;67831;-49
2023/07/07 11:24:43;;;;;;;1.20;1.00;;;;;;;26.52;100.00;99531.74;105274;1264;73078;-50
2023/07/07 11:27:37;;;;;;;1.30;1.20;;;;;;;26.55;100.00;99535.34;104721;1260;60566;-50